This is the latest recevied weather packets stored in our database for station/object N7DQ. If no packets are shown the sender has not sent any weather packets the latest 10 day(s).
| Time | Temp. | Humidity | Pressure | Rain* | Wind** | Luminosity | Snow |
|---|---|---|---|---|---|---|---|
| 1777227605 | 16.11° C | 62% | 1010.7 hPa | 0 mm | - | 775 W/m² | - |
| 1777227305 | 16.11° C | 61% | 1010.7 hPa | 0 mm | - | 766 W/m² | - |
| 1777227005 | 16.11° C | 60% | 1010.8 hPa | 0 mm | - | 758 W/m² | - |
| 1777226705 | 15.56° C | 65% | 1010.8 hPa | 0 mm | - | 749 W/m² | - |
| 1777226404 | 15° C | 67% | 1010.8 hPa | 0 mm | - | 740 W/m² | - |
| 1777226104 | 15° C | 67% | 1010.7 hPa | 0 mm | - | 728 W/m² | - |
| 1777225804 | 14.44° C | 68% | 1010.8 hPa | 0 mm | - | 717 W/m² | - |
| 1777225505 | 13.89° C | 70% | 1010.8 hPa | 0 mm | - | 705 W/m² | - |
| 1777225205 | 13.33° C | 76% | 1010.9 hPa | 0 mm | - | 691 W/m² | - |
| 1777224905 | 13.33° C | 75% | 1011 hPa | 0 mm | - | 680 W/m² | - |
| 1777224605 | 12.78° C | 76% | 1011 hPa | 0 mm | - | 668 W/m² | - |
| 1777224305 | 12.22° C | 77% | 1011 hPa | 0 mm | - | 656 W/m² | - |
| 1777224005 | 12.22° C | 74% | 1011.1 hPa | 0 mm | - | 642 W/m² | - |
| 1777223705 | 12.22° C | 76% | 1011 hPa | 0 mm | - | 635 W/m² | - |
| 1777223405 | 11.67° C | 77% | 1011 hPa | 0 mm | - | 622 W/m² | - |
| 1777223104 | 11.67° C | 78% | 1011.1 hPa | 0 mm | - | 608 W/m² | - |
| 1777222805 | 11.67° C | 77% | 1011.1 hPa | 0 mm | - | 596 W/m² | - |
| 1777222504 | 11.67° C | 78% | 1011 hPa | 0 mm | - | 584 W/m² | - |
| 1777222205 | 11.67° C | 79% | 1011 hPa | 0 mm | - | 573 W/m² | - |
| 1777221904 | 11.11° C | 80% | 1011 hPa | 0 mm | - | 555 W/m² | - |
| 1777221605 | 11.11° C | 80% | 1011.1 hPa | 0 mm | - | 545 W/m² | - |
| 1777206005 | 3.89° C | 87% | 1010 hPa | 0 mm | - | 0 W/m² | - |
| 1777205704 | 3.89° C | 88% | 1009.9 hPa | 0 mm | - | 0 W/m² | - |
| 1777205405 | 3.89° C | 88% | 1009.8 hPa | 0 mm | - | 0 W/m² | - |
| 1777205104 | 3.89° C | 87% | 1009.8 hPa | 0 mm | - | 0 W/m² | - |
* Rain latest hour (hover to see other rain measurements)
** Current wind speed in m/s (hover to see current wind gust speed)